sensor_id;sensor_type;location;lat;lon;timestamp;temperature;humidity
11399;DHT22;5755;48.116;11.608;2022-11-20T00:01:15;6.50;95.40
11399;DHT22;5755;48.116;11.608;2022-11-20T00:03:43;6.50;95.40
11399;DHT22;5755;48.116;11.608;2022-11-20T00:06:13;6.60;95.40
11399;DHT22;5755;48.116;11.608;2022-11-20T00:08:40;6.60;94.80
11399;DHT22;5755;48.116;11.608;2022-11-20T00:11:09;6.60;95.00
11399;DHT22;5755;48.116;11.608;2022-11-20T00:13:37;6.70;95.00
11399;DHT22;5755;48.116;11.608;2022-11-20T00:16:06;6.60;95.40
11399;DHT22;5755;48.116;11.608;2022-11-20T00:18:33;6.60;95.40
11399;DHT22;5755;48.116;11.608;2022-11-20T00:21:02;6.50;95.40
11399;DHT22;5755;48.116;11.608;2022-11-20T00:23:32;6.40;95.40
11399;DHT22;5755;48.116;11.608;2022-11-20T00:26:02;6.50;95.40
11399;DHT22;5755;48.116;11.608;2022-11-20T00:28:29;6.60;95.40
11399;DHT22;5755;48.116;11.608;2022-11-20T00:31:01;6.50;95.40
11399;DHT22;5755;48.116;11.608;2022-11-20T00:33:28;6.60;95.80
11399;DHT22;5755;48.116;11.608;2022-11-20T00:36:02;6.60;95.40
11399;DHT22;5755;48.116;11.608;2022-11-20T00:38:29;6.60;95.40
11399;DHT22;5755;48.116;11.608;2022-11-20T00:40:59;6.60;95.40
11399;DHT22;5755;48.116;11.608;2022-11-20T00:43:28;6.50;95.40
11399;DHT22;5755;48.116;11.608;2022-11-20T00:45:58;6.50;96.10
11399;DHT22;5755;48.116;11.608;2022-11-20T00:48:25;6.40;96.30
11399;DHT22;5755;48.116;11.608;2022-11-20T00:50:52;6.40;96.40
11399;DHT22;5755;48.116;11.608;2022-11-20T00:53:25;6.50;96.30
11399;DHT22;5755;48.116;11.608;2022-11-20T00:55:53;6.50;96.80
11399;DHT22;5755;48.116;11.608;2022-11-20T00:58:22;6.50;96.50
11399;DHT22;5755;48.116;11.608;2022-11-20T01:01:00;6.50;96.40
11399;DHT22;5755;48.116;11.608;2022-11-20T01:03:30;6.50;95.90
11399;DHT22;5755;48.116;11.608;2022-11-20T01:06:31;6.60;96.00
11399;DHT22;5755;48.116;11.608;2022-11-20T01:09:01;6.60;95.70
11399;DHT22;5755;48.116;11.608;2022-11-20T01:11:29;6.70;95.40
11399;DHT22;5755;48.116;11.608;2022-11-20T01:13:59;6.60;95.40
11399;DHT22;5755;48.116;11.608;2022-11-20T01:16:33;6.70;95.40
11399;DHT22;5755;48.116;11.608;2022-11-20T01:19:02;6.70;95.40
11399;DHT22;5755;48.116;11.608;2022-11-20T01:21:30;6.70;95.40
11399;DHT22;5755;48.116;11.608;2022-11-20T01:23:58;6.70;95.40
11399;DHT22;5755;48.116;11.608;2022-11-20T01:26:28;6.70;95.00
11399;DHT22;5755;48.116;11.608;2022-11-20T01:28:57;6.80;94.90
11399;DHT22;5755;48.116;11.608;2022-11-20T01:31:27;6.70;95.00
11399;DHT22;5755;48.116;11.608;2022-11-20T01:33:56;6.60;95.00
11399;DHT22;5755;48.116;11.608;2022-11-20T01:36:25;6.60;95.40
11399;DHT22;5755;48.116;11.608;2022-11-20T01:38:53;6.50;95.40
11399;DHT22;5755;48.116;11.608;2022-11-20T01:41:20;6.50;95.40
11399;DHT22;5755;48.116;11.608;2022-11-20T01:44:05;6.50;95.40
11399;DHT22;5755;48.116;11.608;2022-11-20T01:46:40;6.50;95.70
11399;DHT22;5755;48.116;11.608;2022-11-20T01:49:13;6.50;96.20
11399;DHT22;5755;48.116;11.608;2022-11-20T01:51:47;6.50;95.40
11399;DHT22;5755;48.116;11.608;2022-11-20T01:54:23;6.50;95.40
11399;DHT22;5755;48.116;11.608;2022-11-20T01:56:54;6.50;95.40
11399;DHT22;5755;48.116;11.608;2022-11-20T01:59:26;6.50;95.40
11399;DHT22;5755;48.116;11.608;2022-11-20T02:01:56;6.50;95.40
11399;DHT22;5755;48.116;11.608;2022-11-20T02:04:23;6.60;95.40
11399;DHT22;5755;48.116;11.608;2022-11-20T02:06:55;6.40;95.40
11399;DHT22;5755;48.116;11.608;2022-11-20T02:09:31;6.40;95.40
11399;DHT22;5755;48.116;11.608;2022-11-20T02:12:01;6.40;96.00
11399;DHT22;5755;48.116;11.608;2022-11-20T02:14:37;6.40;96.10
11399;DHT22;5755;48.116;11.608;2022-11-20T02:17:04;6.50;95.40
11399;DHT22;5755;48.116;11.608;2022-11-20T02:19:31;6.40;95.40
11399;DHT22;5755;48.116;11.608;2022-11-20T02:22:03;6.50;95.40
11399;DHT22;5755;48.116;11.608;2022-11-20T02:24:34;6.40;95.40
11399;DHT22;5755;48.116;11.608;2022-11-20T02:27:15;6.40;95.40
11399;DHT22;5755;48.116;11.608;2022-11-20T02:29:47;6.40;95.40
11399;DHT22;5755;48.116;11.608;2022-11-20T02:32:18;6.40;95.40
11399;DHT22;5755;48.116;11.608;2022-11-20T02:34:45;6.50;95.40
11399;DHT22;5755;48.116;11.608;2022-11-20T02:37:12;6.40;95.40
11399;DHT22;5755;48.116;11.608;2022-11-20T02:39:42;6.30;95.40
11399;DHT22;5755;48.116;11.608;2022-11-20T02:42:09;6.40;95.40
11399;DHT22;5755;48.116;11.608;2022-11-20T02:44:36;6.40;95.40
11399;DHT22;5755;48.116;11.608;2022-11-20T02:47:03;6.30;95.40
11399;DHT22;5755;48.116;11.608;2022-11-20T02:49:30;6.30;95.30
11399;DHT22;5755;48.116;11.608;2022-11-20T02:51:57;6.30;95.40
11399;DHT22;5755;48.116;11.608;2022-11-20T02:54:24;6.30;95.40
11399;DHT22;5755;48.116;11.608;2022-11-20T02:56:53;6.30;95.40
11399;DHT22;5755;48.116;11.608;2022-11-20T02:59:20;6.30;95.40
11399;DHT22;5755;48.116;11.608;2022-11-20T03:01:47;6.30;95.60
11399;DHT22;5755;48.116;11.608;2022-11-20T03:04:14;6.30;95.40
11399;DHT22;5755;48.116;11.608;2022-11-20T03:06:41;6.20;95.30
11399;DHT22;5755;48.116;11.608;2022-11-20T03:09:08;6.30;95.40
11399;DHT22;5755;48.116;11.608;2022-11-20T03:11:35;6.40;95.40
11399;DHT22;5755;48.116;11.608;2022-11-20T03:14:04;6.30;95.30
11399;DHT22;5755;48.116;11.608;2022-11-20T03:16:31;6.40;95.20
11399;DHT22;5755;48.116;11.608;2022-11-20T03:19:01;6.40;94.80
11399;DHT22;5755;48.116;11.608;2022-11-20T03:21:28;6.30;95.40
11399;DHT22;5755;48.116;11.608;2022-11-20T03:23:55;6.30;95.40
11399;DHT22;5755;48.116;11.608;2022-11-20T03:26:23;6.40;95.40
11399;DHT22;5755;48.116;11.608;2022-11-20T03:28:51;6.50;94.50
11399;DHT22;5755;48.116;11.608;2022-11-20T03:31:21;6.50;94.00
11399;DHT22;5755;48.116;11.608;2022-11-20T03:33:49;6.40;94.50
11399;DHT22;5755;48.116;11.608;2022-11-20T03:36:17;6.50;94.00
11399;DHT22;5755;48.116;11.608;2022-11-20T03:38:49;6.50;94.30
11399;DHT22;5755;48.116;11.608;2022-11-20T03:41:20;6.50;94.00
11399;DHT22;5755;48.116;11.608;2022-11-20T03:43:48;6.50;93.90
11399;DHT22;5755;48.116;11.608;2022-11-20T03:46:16;6.50;93.40
11399;DHT22;5755;48.116;11.608;2022-11-20T03:48:44;6.50;93.20
11399;DHT22;5755;48.116;11.608;2022-11-20T03:51:12;6.60;93.00
11399;DHT22;5755;48.116;11.608;2022-11-20T03:53:40;6.60;92.80
11399;DHT22;5755;48.116;11.608;2022-11-20T03:56:08;6.50;93.00
11399;DHT22;5755;48.116;11.608;2022-11-20T03:58:35;6.50;93.50
11399;DHT22;5755;48.116;11.608;2022-11-20T04:01:07;6.40;93.70
11399;DHT22;5755;48.116;11.608;2022-11-20T04:03:35;6.30;94.00
11399;DHT22;5755;48.116;11.608;2022-11-20T04:06:06;6.40;93.80
11399;DHT22;5755;48.116;11.608;2022-11-20T04:08:54;6.40;93.40
11399;DHT22;5755;48.116;11.608;2022-11-20T04:11:24;6.40;93.00
11399;DHT22;5755;48.116;11.608;2022-11-20T04:13:53;6.40;93.30
11399;DHT22;5755;48.116;11.608;2022-11-20T04:16:21;6.40;93.10
11399;DHT22;5755;48.116;11.608;2022-11-20T04:18:52;6.30;93.80
11399;DHT22;5755;48.116;11.608;2022-11-20T04:21:21;6.30;93.90
11399;DHT22;5755;48.116;11.608;2022-11-20T04:23:48;6.40;93.40
11399;DHT22;5755;48.116;11.608;2022-11-20T04:26:15;6.40;93.20
11399;DHT22;5755;48.116;11.608;2022-11-20T04:28:42;6.40;93.10
11399;DHT22;5755;48.116;11.608;2022-11-20T04:31:10;6.40;93.30
11399;DHT22;5755;48.116;11.608;2022-11-20T04:33:38;6.30;93.20
11399;DHT22;5755;48.116;11.608;2022-11-20T04:36:07;6.40;93.40
11399;DHT22;5755;48.116;11.608;2022-11-20T04:38:35;6.40;93.20
11399;DHT22;5755;48.116;11.608;2022-11-20T04:41:04;6.50;92.70
11399;DHT22;5755;48.116;11.608;2022-11-20T04:43:32;6.50;92.50
11399;DHT22;5755;48.116;11.608;2022-11-20T04:46:01;6.50;92.10
11399;DHT22;5755;48.116;11.608;2022-11-20T04:48:29;6.40;92.70
11399;DHT22;5755;48.116;11.608;2022-11-20T04:50:56;6.40;92.40
11399;DHT22;5755;48.116;11.608;2022-11-20T04:53:24;6.40;92.70
11399;DHT22;5755;48.116;11.608;2022-11-20T04:55:59;6.40;92.50
11399;DHT22;5755;48.116;11.608;2022-11-20T04:58:26;6.40;92.40
11399;DHT22;5755;48.116;11.608;2022-11-20T05:00:53;6.40;92.70
11399;DHT22;5755;48.116;11.608;2022-11-20T05:03:20;6.30;92.80
11399;DHT22;5755;48.116;11.608;2022-11-20T05:05:47;6.30;92.80
11399;DHT22;5755;48.116;11.608;2022-11-20T05:08:14;6.20;93.20
11399;DHT22;5755;48.116;11.608;2022-11-20T05:10:43;6.30;93.30
11399;DHT22;5755;48.116;11.608;2022-11-20T05:13:11;6.30;92.90
11399;DHT22;5755;48.116;11.608;2022-11-20T05:15:38;6.40;92.80
11399;DHT22;5755;48.116;11.608;2022-11-20T05:18:05;6.30;93.20
11399;DHT22;5755;48.116;11.608;2022-11-20T05:20:32;6.40;92.90
11399;DHT22;5755;48.116;11.608;2022-11-20T05:23:01;6.30;93.10
11399;DHT22;5755;48.116;11.608;2022-11-20T05:25:28;6.30;92.80
11399;DHT22;5755;48.116;11.608;2022-11-20T05:27:55;6.30;93.00
11399;DHT22;5755;48.116;11.608;2022-11-20T05:30:24;6.30;92.80
11399;DHT22;5755;48.116;11.608;2022-11-20T05:33:04;6.40;92.50
11399;DHT22;5755;48.116;11.608;2022-11-20T05:35:31;6.30;92.80
11399;DHT22;5755;48.116;11.608;2022-11-20T05:37:58;6.30;92.90
11399;DHT22;5755;48.116;11.608;2022-11-20T05:40:25;6.30;92.70
11399;DHT22;5755;48.116;11.608;2022-11-20T05:42:52;6.20;93.20
11399;DHT22;5755;48.116;11.608;2022-11-20T05:45:19;6.20;92.90
11399;DHT22;5755;48.116;11.608;2022-11-20T05:47:47;6.30;92.90
11399;DHT22;5755;48.116;11.608;2022-11-20T05:50:14;6.30;92.70
11399;DHT22;5755;48.116;11.608;2022-11-20T05:52:41;6.20;93.10
11399;DHT22;5755;48.116;11.608;2022-11-20T05:55:09;6.20;93.10
11399;DHT22;5755;48.116;11.608;2022-11-20T05:57:36;6.20;92.90
11399;DHT22;5755;48.116;11.608;2022-11-20T06:00:04;6.30;92.70
11399;DHT22;5755;48.116;11.608;2022-11-20T06:02:34;6.30;92.70
11399;DHT22;5755;48.116;11.608;2022-11-20T06:05:03;6.20;93.00
11399;DHT22;5755;48.116;11.608;2022-11-20T06:07:30;6.20;92.90
11399;DHT22;5755;48.116;11.608;2022-11-20T06:09:57;6.10;93.00
11399;DHT22;5755;48.116;11.608;2022-11-20T06:12:24;6.20;92.90
11399;DHT22;5755;48.116;11.608;2022-11-20T06:14:50;6.20;92.90
11399;DHT22;5755;48.116;11.608;2022-11-20T06:17:17;6.20;93.00
11399;DHT22;5755;48.116;11.608;2022-11-20T06:19:44;6.20;92.90
11399;DHT22;5755;48.116;11.608;2022-11-20T06:22:13;6.20;92.60
11399;DHT22;5755;48.116;11.608;2022-11-20T06:24:39;6.10;92.60
11399;DHT22;5755;48.116;11.608;2022-11-20T06:27:06;6.10;92.60
11399;DHT22;5755;48.116;11.608;2022-11-20T06:29:33;6.00;92.30
11399;DHT22;5755;48.116;11.608;2022-11-20T06:32:00;5.90;92.60
11399;DHT22;5755;48.116;11.608;2022-11-20T06:34:27;5.80;92.60
11399;DHT22;5755;48.116;11.608;2022-11-20T06:36:54;5.70;92.50
11399;DHT22;5755;48.116;11.608;2022-11-20T06:39:25;5.70;92.40
11399;DHT22;5755;48.116;11.608;2022-11-20T06:41:55;5.70;92.50
11399;DHT22;5755;48.116;11.608;2022-11-20T06:44:22;5.70;92.30
11399;DHT22;5755;48.116;11.608;2022-11-20T06:46:49;5.60;92.40
11399;DHT22;5755;48.116;11.608;2022-11-20T06:49:16;5.70;91.80
11399;DHT22;5755;48.116;11.608;2022-11-20T06:51:43;5.60;92.10
11399;DHT22;5755;48.116;11.608;2022-11-20T06:54:10;5.70;91.50
11399;DHT22;5755;48.116;11.608;2022-11-20T06:56:38;5.70;91.40
11399;DHT22;5755;48.116;11.608;2022-11-20T06:59:05;5.80;91.50
11399;DHT22;5755;48.116;11.608;2022-11-20T07:01:33;5.90;91.20
11399;DHT22;5755;48.116;11.608;2022-11-20T07:04:00;6.00;91.10
11399;DHT22;5755;48.116;11.608;2022-11-20T07:06:27;6.00;91.20
11399;DHT22;5755;48.116;11.608;2022-11-20T07:08:54;6.00;91.20
11399;DHT22;5755;48.116;11.608;2022-11-20T07:11:21;6.10;90.60
11399;DHT22;5755;48.116;11.608;2022-11-20T07:13:50;6.10;90.50
11399;DHT22;5755;48.116;11.608;2022-11-20T07:16:17;6.30;90.00
11399;DHT22;5755;48.116;11.608;2022-11-20T07:18:44;6.30;90.10
11399;DHT22;5755;48.116;11.608;2022-11-20T07:21:11;6.20;90.50
11399;DHT22;5755;48.116;11.608;2022-11-20T07:23:38;6.30;90.60
11399;DHT22;5755;48.116;11.608;2022-11-20T07:26:05;6.40;91.20
11399;DHT22;5755;48.116;11.608;2022-11-20T07:28:32;6.30;91.40
11399;DHT22;5755;48.116;11.608;2022-11-20T07:31:02;6.30;91.20
11399;DHT22;5755;48.116;11.608;2022-11-20T07:33:31;6.30;91.30
11399;DHT22;5755;48.116;11.608;2022-11-20T07:35:58;6.30;91.50
11399;DHT22;5755;48.116;11.608;2022-11-20T07:38:25;6.40;91.30
11399;DHT22;5755;48.116;11.608;2022-11-20T07:40:54;6.40;91.00
11399;DHT22;5755;48.116;11.608;2022-11-20T07:43:21;6.40;91.50
11399;DHT22;5755;48.116;11.608;2022-11-20T07:45:48;6.40;91.60
11399;DHT22;5755;48.116;11.608;2022-11-20T07:48:17;6.40;91.40
11399;DHT22;5755;48.116;11.608;2022-11-20T07:50:44;6.50;90.70
11399;DHT22;5755;48.116;11.608;2022-11-20T07:53:17;6.50;90.30
11399;DHT22;5755;48.116;11.608;2022-11-20T07:55:46;6.50;90.80
11399;DHT22;5755;48.116;11.608;2022-11-20T07:58:13;6.50;90.00
11399;DHT22;5755;48.116;11.608;2022-11-20T08:00:40;6.50;89.90
11399;DHT22;5755;48.116;11.608;2022-11-20T08:03:07;6.60;90.00
11399;DHT22;5755;48.116;11.608;2022-11-20T08:05:35;6.60;90.00
11399;DHT22;5755;48.116;11.608;2022-11-20T08:08:04;6.70;88.90
11399;DHT22;5755;48.116;11.608;2022-11-20T08:10:43;6.70;88.20
11399;DHT22;5755;48.116;11.608;2022-11-20T08:13:10;6.70;87.10
11399;DHT22;5755;48.116;11.608;2022-11-20T08:15:54;6.70;87.40
11399;DHT22;5755;48.116;11.608;2022-11-20T08:18:31;6.70;88.30
11399;DHT22;5755;48.116;11.608;2022-11-20T08:21:04;6.70;87.80
11399;DHT22;5755;48.116;11.608;2022-11-20T08:23:44;6.70;86.70
11399;DHT22;5755;48.116;11.608;2022-11-20T08:26:11;6.80;86.90
11399;DHT22;5755;48.116;11.608;2022-11-20T08:28:38;6.70;87.40
11399;DHT22;5755;48.116;11.608;2022-11-20T08:31:05;6.70;86.30
11399;DHT22;5755;48.116;11.608;2022-11-20T08:33:37;6.80;87.10
11399;DHT22;5755;48.116;11.608;2022-11-20T08:36:09;6.90;85.30
11399;DHT22;5755;48.116;11.608;2022-11-20T08:38:50;7.00;83.40
11399;DHT22;5755;48.116;11.608;2022-11-20T08:44:31;7.00;82.90
11399;DHT22;5755;48.116;11.608;2022-11-20T08:47:03;7.00;83.50
11399;DHT22;5755;48.116;11.608;2022-11-20T08:49:49;7.10;82.90
11399;DHT22;5755;48.116;11.608;2022-11-20T08:52:20;7.20;82.40
11399;DHT22;5755;48.116;11.608;2022-11-20T08:54:47;7.30;81.30
11399;DHT22;5755;48.116;11.608;2022-11-20T08:57:17;7.30;81.40
11399;DHT22;5755;48.116;11.608;2022-11-20T08:59:44;7.40;81.00
11399;DHT22;5755;48.116;11.608;2022-11-20T09:02:13;7.50;79.20
11399;DHT22;5755;48.116;11.608;2022-11-20T09:04:42;7.60;78.70
11399;DHT22;5755;48.116;11.608;2022-11-20T09:07:27;7.70;77.10
11399;DHT22;5755;48.116;11.608;2022-11-20T09:09:55;7.70;76.20
11399;DHT22;5755;48.116;11.608;2022-11-20T09:12:22;7.70;77.00
11399;DHT22;5755;48.116;11.608;2022-11-20T09:14:50;7.60;78.90
11399;DHT22;5755;48.116;11.608;2022-11-20T09:17:17;7.70;76.30
11399;DHT22;5755;48.116;11.608;2022-11-20T09:19:44;7.70;72.70
11399;DHT22;5755;48.116;11.608;2022-11-20T09:22:11;7.70;72.60
11399;DHT22;5755;48.116;11.608;2022-11-20T09:24:39;7.60;74.10
11399;DHT22;5755;48.116;11.608;2022-11-20T09:27:08;7.60;75.50
11399;DHT22;5755;48.116;11.608;2022-11-20T09:29:35;7.60;75.40
11399;DHT22;5755;48.116;11.608;2022-11-20T09:32:02;7.70;75.10
11399;DHT22;5755;48.116;11.608;2022-11-20T09:34:29;7.80;72.60
11399;DHT22;5755;48.116;11.608;2022-11-20T09:37:13;7.90;72.80
11399;DHT22;5755;48.116;11.608;2022-11-20T09:39:48;8.00;73.00
11399;DHT22;5755;48.116;11.608;2022-11-20T09:42:31;8.20;68.60
11399;DHT22;5755;48.116;11.608;2022-11-20T09:45:24;8.20;66.90
11399;DHT22;5755;48.116;11.608;2022-11-20T09:48:08;8.20;69.30
11399;DHT22;5755;48.116;11.608;2022-11-20T09:50:45;8.30;67.60
11399;DHT22;5755;48.116;11.608;2022-11-20T09:53:22;8.30;66.30
11399;DHT22;5755;48.116;11.608;2022-11-20T09:55:52;8.30;63.00
11399;DHT22;5755;48.116;11.608;2022-11-20T09:58:27;8.40;60.60
11399;DHT22;5755;48.116;11.608;2022-11-20T10:01:00;8.40;59.40
11399;DHT22;5755;48.116;11.608;2022-11-20T10:03:37;8.20;62.60
11399;DHT22;5755;48.116;11.608;2022-11-20T10:06:11;8.30;59.10
11399;DHT22;5755;48.116;11.608;2022-11-20T10:08:43;8.50;58.90
11399;DHT22;5755;48.116;11.608;2022-11-20T10:11:18;9.10;60.00
11399;DHT22;5755;48.116;11.608;2022-11-20T10:13:55;9.90;48.30
11399;DHT22;5755;48.116;11.608;2022-11-20T10:16:32;10.00;41.30
11399;DHT22;5755;48.116;11.608;2022-11-20T10:19:18;9.90;46.50
11399;DHT22;5755;48.116;11.608;2022-11-20T10:21:58;10.10;43.60
11399;DHT22;5755;48.116;11.608;2022-11-20T10:24:42;10.00;44.40
11399;DHT22;5755;48.116;11.608;2022-11-20T10:27:32;9.90;43.60
11399;DHT22;5755;48.116;11.608;2022-11-20T10:30:06;10.00;43.20
11399;DHT22;5755;48.116;11.608;2022-11-20T10:33:15;10.00;42.50
11399;DHT22;5755;48.116;11.608;2022-11-20T10:35:35;9.90;44.70
11399;DHT22;5755;48.116;11.608;2022-11-20T10:38:09;9.80;44.30
11399;DHT22;5755;48.116;11.608;2022-11-20T10:40:44;10.00;44.00
11399;DHT22;5755;48.116;11.608;2022-11-20T10:43:16;10.00;44.20
11399;DHT22;5755;48.116;11.608;2022-11-20T10:45:53;10.00;42.40
11399;DHT22;5755;48.116;11.608;2022-11-20T10:48:24;9.90;42.80
11399;DHT22;5755;48.116;11.608;2022-11-20T10:51:02;9.80;43.40
11399;DHT22;5755;48.116;11.608;2022-11-20T10:53:42;9.80;44.40
11399;DHT22;5755;48.116;11.608;2022-11-20T10:56:17;9.60;45.60
11399;DHT22;5755;48.116;11.608;2022-11-20T10:58:56;9.50;48.00
11399;DHT22;5755;48.116;11.608;2022-11-20T11:01:40;9.40;45.10
11399;DHT22;5755;48.116;11.608;2022-11-20T11:04:22;9.20;46.00
11399;DHT22;5755;48.116;11.608;2022-11-20T11:06:50;9.20;47.70
11399;DHT22;5755;48.116;11.608;2022-11-20T11:09:24;9.10;47.60
11399;DHT22;5755;48.116;11.608;2022-11-20T11:11:54;9.20;47.70
11399;DHT22;5755;48.116;11.608;2022-11-20T11:14:23;9.20;47.70
11399;DHT22;5755;48.116;11.608;2022-11-20T11:17:01;9.30;50.70
11399;DHT22;5755;48.116;11.608;2022-11-20T11:19:28;9.30;49.50
11399;DHT22;5755;48.116;11.608;2022-11-20T11:22:25;9.20;51.20
11399;DHT22;5755;48.116;11.608;2022-11-20T11:25:02;9.20;50.70
11399;DHT22;5755;48.116;11.608;2022-11-20T11:27:29;9.10;52.20
11399;DHT22;5755;48.116;11.608;2022-11-20T11:30:14;9.10;52.80
11399;DHT22;5755;48.116;11.608;2022-11-20T11:32:49;9.30;54.90
11399;DHT22;5755;48.116;11.608;2022-11-20T11:35:27;9.40;54.40
11399;DHT22;5755;48.116;11.608;2022-11-20T11:38:03;9.50;53.70
11399;DHT22;5755;48.116;11.608;2022-11-20T11:40:32;9.40;49.70
11399;DHT22;5755;48.116;11.608;2022-11-20T11:43:03;9.40;49.80
11399;DHT22;5755;48.116;11.608;2022-11-20T11:45:32;9.30;50.00
11399;DHT22;5755;48.116;11.608;2022-11-20T11:48:00;9.10;50.90
11399;DHT22;5755;48.116;11.608;2022-11-20T11:50:29;9.10;51.20
11399;DHT22;5755;48.116;11.608;2022-11-20T11:53:11;9.10;51.90
11399;DHT22;5755;48.116;11.608;2022-11-20T11:56:02;9.10;52.20
11399;DHT22;5755;48.116;11.608;2022-11-20T11:58:50;9.20;50.90
11399;DHT22;5755;48.116;11.608;2022-11-20T12:04:57;9.30;52.20
11399;DHT22;5755;48.116;11.608;2022-11-20T12:07:34;9.40;50.50
11399;DHT22;5755;48.116;11.608;2022-11-20T12:10:37;9.40;49.80
11399;DHT22;5755;48.116;11.608;2022-11-20T12:13:30;9.40;52.50
11399;DHT22;5755;48.116;11.608;2022-11-20T12:16:32;9.40;50.90
11399;DHT22;5755;48.116;11.608;2022-11-20T12:19:02;9.20;53.50
11399;DHT22;5755;48.116;11.608;2022-11-20T12:21:43;9.10;54.50
11399;DHT22;5755;48.116;11.608;2022-11-20T12:30:19;8.70;71.50
11399;DHT22;5755;48.116;11.608;2022-11-20T12:33:12;8.60;71.80
11399;DHT22;5755;48.116;11.608;2022-11-20T12:35:58;8.50;73.50
11399;DHT22;5755;48.116;11.608;2022-11-20T12:42:08;8.10;79.00
11399;DHT22;5755;48.116;11.608;2022-11-20T12:45:10;7.90;83.70
11399;DHT22;5755;48.116;11.608;2022-11-20T12:48:09;7.80;86.00
11399;DHT22;5755;48.116;11.608;2022-11-20T12:50:47;7.70;87.70
11399;DHT22;5755;48.116;11.608;2022-11-20T12:53:29;7.70;87.80
11399;DHT22;5755;48.116;11.608;2022-11-20T12:56:04;7.80;87.90
11399;DHT22;5755;48.116;11.608;2022-11-20T12:58:55;7.80;86.60
11399;DHT22;5755;48.116;11.608;2022-11-20T13:01:32;7.70;86.70
11399;DHT22;5755;48.116;11.608;2022-11-20T13:04:16;7.70;87.80
11399;DHT22;5755;48.116;11.608;2022-11-20T13:06:50;7.70;89.10
11399;DHT22;5755;48.116;11.608;2022-11-20T13:09:20;7.70;89.30
11399;DHT22;5755;48.116;11.608;2022-11-20T13:11:59;7.70;90.20
11399;DHT22;5755;48.116;11.608;2022-11-20T13:14:50;7.70;90.20
11399;DHT22;5755;48.116;11.608;2022-11-20T13:17:24;7.70;87.40
11399;DHT22;5755;48.116;11.608;2022-11-20T13:19:56;7.70;88.10
11399;DHT22;5755;48.116;11.608;2022-11-20T13:22:43;7.80;88.00
11399;DHT22;5755;48.116;11.608;2022-11-20T13:25:22;7.70;89.00
11399;DHT22;5755;48.116;11.608;2022-11-20T13:27:49;7.60;87.90
11399;DHT22;5755;48.116;11.608;2022-11-20T13:30:20;7.60;90.20
11399;DHT22;5755;48.116;11.608;2022-11-20T13:32:55;7.40;90.10
11399;DHT22;5755;48.116;11.608;2022-11-20T13:35:56;7.30;90.70
11399;DHT22;5755;48.116;11.608;2022-11-20T13:45:30;7.30;91.00
11399;DHT22;5755;48.116;11.608;2022-11-20T13:48:03;7.30;90.60
11399;DHT22;5755;48.116;11.608;2022-11-20T13:50:42;7.30;90.50
11399;DHT22;5755;48.116;11.608;2022-11-20T13:53:22;7.30;90.80
11399;DHT22;5755;48.116;11.608;2022-11-20T13:56:15;7.40;90.70
11399;DHT22;5755;48.116;11.608;2022-11-20T13:58:50;7.50;90.10
11399;DHT22;5755;48.116;11.608;2022-11-20T14:01:23;7.50;90.10
11399;DHT22;5755;48.116;11.608;2022-11-20T14:04:26;7.50;90.10
11399;DHT22;5755;48.116;11.608;2022-11-20T14:06:55;7.60;90.20
11399;DHT22;5755;48.116;11.608;2022-11-20T14:09:27;7.60;88.30
11399;DHT22;5755;48.116;11.608;2022-11-20T14:11:54;7.60;90.20
11399;DHT22;5755;48.116;11.608;2022-11-20T14:14:23;7.50;90.10
11399;DHT22;5755;48.116;11.608;2022-11-20T14:17:07;7.50;90.10
11399;DHT22;5755;48.116;11.608;2022-11-20T14:19:35;7.50;90.10
11399;DHT22;5755;48.116;11.608;2022-11-20T14:22:15;7.40;90.10
11399;DHT22;5755;48.116;11.608;2022-11-20T14:25:19;7.50;90.10
11399;DHT22;5755;48.116;11.608;2022-11-20T14:28:02;7.50;89.60
11399;DHT22;5755;48.116;11.608;2022-11-20T14:30:39;7.60;88.00
11399;DHT22;5755;48.116;11.608;2022-11-20T14:33:16;7.60;87.10
11399;DHT22;5755;48.116;11.608;2022-11-20T14:35:45;7.50;87.40
11399;DHT22;5755;48.116;11.608;2022-11-20T14:38:15;7.50;87.10
11399;DHT22;5755;48.116;11.608;2022-11-20T14:40:43;7.50;87.70
11399;DHT22;5755;48.116;11.608;2022-11-20T14:43:22;7.50;88.20
11399;DHT22;5755;48.116;11.608;2022-11-20T14:45:56;7.50;87.50
11399;DHT22;5755;48.116;11.608;2022-11-20T14:48:38;7.50;87.20
11399;DHT22;5755;48.116;11.608;2022-11-20T14:51:32;7.40;87.70
11399;DHT22;5755;48.116;11.608;2022-11-20T14:54:10;7.40;88.10
11399;DHT22;5755;48.116;11.608;2022-11-20T14:56:37;7.50;87.40
11399;DHT22;5755;48.116;11.608;2022-11-20T14:59:23;7.60;85.70
11399;DHT22;5755;48.116;11.608;2022-11-20T15:01:55;7.50;85.50
11399;DHT22;5755;48.116;11.608;2022-11-20T15:04:24;7.40;86.30
11399;DHT22;5755;48.116;11.608;2022-11-20T15:06:58;7.30;85.10
11399;DHT22;5755;48.116;11.608;2022-11-20T15:09:26;7.30;85.00
11399;DHT22;5755;48.116;11.608;2022-11-20T15:11:55;7.20;85.40
11399;DHT22;5755;48.116;11.608;2022-11-20T15:14:27;7.20;85.10
11399;DHT22;5755;48.116;11.608;2022-11-20T15:16:55;7.10;84.00
11399;DHT22;5755;48.116;11.608;2022-11-20T15:19:25;7.10;85.00
11399;DHT22;5755;48.116;11.608;2022-11-20T15:21:53;7.10;85.10
11399;DHT22;5755;48.116;11.608;2022-11-20T15:24:20;7.10;84.40
11399;DHT22;5755;48.116;11.608;2022-11-20T15:26:47;7.20;84.70
11399;DHT22;5755;48.116;11.608;2022-11-20T15:29:15;7.20;84.20
11399;DHT22;5755;48.116;11.608;2022-11-20T15:31:44;7.20;84.50
11399;DHT22;5755;48.116;11.608;2022-11-20T15:34:12;7.10;85.50
11399;DHT22;5755;48.116;11.608;2022-11-20T15:36:41;7.10;85.90
11399;DHT22;5755;48.116;11.608;2022-11-20T15:39:09;7.10;85.20
11399;DHT22;5755;48.116;11.608;2022-11-20T15:41:37;7.10;86.10
11399;DHT22;5755;48.116;11.608;2022-11-20T15:44:04;7.00;87.30
11399;DHT22;5755;48.116;11.608;2022-11-20T15:46:33;7.00;87.10
11399;DHT22;5755;48.116;11.608;2022-11-20T15:49:04;7.00;87.40
11399;DHT22;5755;48.116;11.608;2022-11-20T15:51:34;7.00;86.60
11399;DHT22;5755;48.116;11.608;2022-11-20T15:54:09;6.90;86.90
11399;DHT22;5755;48.116;11.608;2022-11-20T15:56:37;6.70;88.10
11399;DHT22;5755;48.116;11.608;2022-11-20T15:59:04;6.60;90.00
11399;DHT22;5755;48.116;11.608;2022-11-20T16:01:31;6.50;89.90
11399;DHT22;5755;48.116;11.608;2022-11-20T16:03:59;6.50;89.90
11399;DHT22;5755;48.116;11.608;2022-11-20T16:06:26;6.40;90.20
11399;DHT22;5755;48.116;11.608;2022-11-20T16:08:53;6.20;90.90
11399;DHT22;5755;48.116;11.608;2022-11-20T16:11:21;6.20;91.00
11399;DHT22;5755;48.116;11.608;2022-11-20T16:13:48;6.20;91.40
11399;DHT22;5755;48.116;11.608;2022-11-20T16:16:34;6.10;91.30
11399;DHT22;5755;48.116;11.608;2022-11-20T16:19:01;6.00;91.60
11399;DHT22;5755;48.116;11.608;2022-11-20T16:21:28;5.90;91.90
11399;DHT22;5755;48.116;11.608;2022-11-20T16:23:57;6.00;91.80
11399;DHT22;5755;48.116;11.608;2022-11-20T16:26:25;5.90;92.20
11399;DHT22;5755;48.116;11.608;2022-11-20T16:28:53;5.90;92.40
11399;DHT22;5755;48.116;11.608;2022-11-20T16:31:20;5.90;92.30
11399;DHT22;5755;48.116;11.608;2022-11-20T16:33:50;5.80;92.60
11399;DHT22;5755;48.116;11.608;2022-11-20T16:36:21;5.80;93.00
11399;DHT22;5755;48.116;11.608;2022-11-20T16:38:51;5.70;93.10